sensor_id;sensor_type;location;lat;lon;timestamp;P1;durP1;ratioP1;P2;durP2;ratioP2
19183;SDS011;9724;51.194;6.856;2022-12-20T00:01:24;4.40;;;2.37;;
19183;SDS011;9724;51.194;6.856;2022-12-20T00:03:52;3.33;;;1.83;;
19183;SDS011;9724;51.194;6.856;2022-12-20T00:06:19;4.40;;;2.40;;
19183;SDS011;9724;51.194;6.856;2022-12-20T00:08:46;3.73;;;2.03;;
19183;SDS011;9724;51.194;6.856;2022-12-20T00:11:17;2.73;;;1.90;;
19183;SDS011;9724;51.194;6.856;2022-12-20T00:13:44;3.43;;;2.27;;
19183;SDS011;9724;51.194;6.856;2022-12-20T00:16:11;4.13;;;1.97;;
19183;SDS011;9724;51.194;6.856;2022-12-20T00:18:39;3.47;;;1.97;;
19183;SDS011;9724;51.194;6.856;2022-12-20T00:21:07;2.30;;;2.10;;
19183;SDS011;9724;51.194;6.856;2022-12-20T00:23:35;5.13;;;2.20;;
19183;SDS011;9724;51.194;6.856;2022-12-20T00:26:02;2.73;;;2.20;;
19183;SDS011;9724;51.194;6.856;2022-12-20T00:28:30;5.13;;;1.80;;
19183;SDS011;9724;51.194;6.856;2022-12-20T00:30:57;1.80;;;1.70;;
19183;SDS011;9724;51.194;6.856;2022-12-20T00:33:23;1.83;;;1.73;;
19183;SDS011;9724;51.194;6.856;2022-12-20T00:35:50;5.20;;;2.00;;
19183;SDS011;9724;51.194;6.856;2022-12-20T00:38:18;2.67;;;1.90;;
19183;SDS011;9724;51.194;6.856;2022-12-20T00:40:44;4.60;;;2.10;;
19183;SDS011;9724;51.194;6.856;2022-12-20T00:43:10;2.97;;;1.90;;
19183;SDS011;9724;51.194;6.856;2022-12-20T00:45:37;4.47;;;2.10;;
19183;SDS011;9724;51.194;6.856;2022-12-20T00:48:03;2.83;;;2.00;;
19183;SDS011;9724;51.194;6.856;2022-12-20T00:50:30;2.50;;;2.13;;
19183;SDS011;9724;51.194;6.856;2022-12-20T00:52:57;3.10;;;2.10;;
19183;SDS011;9724;51.194;6.856;2022-12-20T00:55:24;3.33;;;2.20;;
19183;SDS011;9724;51.194;6.856;2022-12-20T00:57:50;6.17;;;2.10;;
19183;SDS011;9724;51.194;6.856;2022-12-20T01:00:17;2.20;;;2.10;;
19183;SDS011;9724;51.194;6.856;2022-12-20T01:02:44;3.43;;;2.10;;
19183;SDS011;9724;51.194;6.856;2022-12-20T01:05:10;4.47;;;2.40;;
19183;SDS011;9724;51.194;6.856;2022-12-20T01:07:36;2.30;;;2.10;;
19183;SDS011;9724;51.194;6.856;2022-12-20T01:10:03;3.43;;;2.20;;
19183;SDS011;9724;51.194;6.856;2022-12-20T01:12:30;3.20;;;2.13;;
19183;SDS011;9724;51.194;6.856;2022-12-20T01:14:56;6.80;;;2.20;;
19183;SDS011;9724;51.194;6.856;2022-12-20T01:17:23;3.07;;;2.00;;
19183;SDS011;9724;51.194;6.856;2022-12-20T01:19:49;3.43;;;2.30;;
19183;SDS011;9724;51.194;6.856;2022-12-20T01:22:15;1.97;;;1.80;;
19183;SDS011;9724;51.194;6.856;2022-12-20T01:24:42;1.90;;;1.80;;
19183;SDS011;9724;51.194;6.856;2022-12-20T01:27:08;3.60;;;2.10;;
19183;SDS011;9724;51.194;6.856;2022-12-20T01:29:35;2.90;;;2.00;;
19183;SDS011;9724;51.194;6.856;2022-12-20T01:32:01;3.37;;;2.17;;
19183;SDS011;9724;51.194;6.856;2022-12-20T01:34:27;3.57;;;2.20;;
19183;SDS011;9724;51.194;6.856;2022-12-20T01:36:54;4.00;;;2.20;;
19183;SDS011;9724;51.194;6.856;2022-12-20T01:39:20;7.00;;;2.00;;
19183;SDS011;9724;51.194;6.856;2022-12-20T01:41:46;3.23;;;2.10;;
19183;SDS011;9724;51.194;6.856;2022-12-20T01:47:24;4.13;;;2.40;;
19183;SDS011;9724;51.194;6.856;2022-12-20T01:49:52;4.13;;;2.40;;
19183;SDS011;9724;51.194;6.856;2022-12-20T01:52:22;2.33;;;2.10;;
19183;SDS011;9724;51.194;6.856;2022-12-20T01:54:52;2.27;;;2.10;;
19183;SDS011;9724;51.194;6.856;2022-12-20T01:57:23;2.63;;;2.30;;
19183;SDS011;9724;51.194;6.856;2022-12-20T01:59:52;4.53;;;2.67;;
19183;SDS011;9724;51.194;6.856;2022-12-20T02:02:19;3.70;;;2.47;;
19183;SDS011;9724;51.194;6.856;2022-12-20T02:04:46;5.03;;;2.40;;
19183;SDS011;9724;51.194;6.856;2022-12-20T02:07:15;3.07;;;2.10;;
19183;SDS011;9724;51.194;6.856;2022-12-20T02:09:43;2.50;;;2.30;;
19183;SDS011;9724;51.194;6.856;2022-12-20T02:12:10;3.90;;;2.50;;
19183;SDS011;9724;51.194;6.856;2022-12-20T02:14:43;3.57;;;2.63;;
19183;SDS011;9724;51.194;6.856;2022-12-20T02:17:18;2.87;;;2.57;;
19183;SDS011;9724;51.194;6.856;2022-12-20T02:19:57;8.50;;;3.00;;
19183;SDS011;9724;51.194;6.856;2022-12-20T02:22:33;2.90;;;2.70;;
19183;SDS011;9724;51.194;6.856;2022-12-20T02:25:11;2.80;;;2.47;;
19183;SDS011;9724;51.194;6.856;2022-12-20T02:27:47;6.30;;;3.10;;
19183;SDS011;9724;51.194;6.856;2022-12-20T02:30:21;3.17;;;2.50;;
19183;SDS011;9724;51.194;6.856;2022-12-20T02:32:50;4.63;;;3.00;;
19183;SDS011;9724;51.194;6.856;2022-12-20T02:35:21;4.23;;;2.87;;
19183;SDS011;9724;51.194;6.856;2022-12-20T02:37:49;4.00;;;2.50;;
19183;SDS011;9724;51.194;6.856;2022-12-20T02:40:18;4.97;;;2.80;;
19183;SDS011;9724;51.194;6.856;2022-12-20T02:42:47;6.60;;;3.23;;
19183;SDS011;9724;51.194;6.856;2022-12-20T02:45:17;4.00;;;3.07;;
19183;SDS011;9724;51.194;6.856;2022-12-20T02:47:51;4.40;;;2.87;;
19183;SDS011;9724;51.194;6.856;2022-12-20T02:50:20;3.50;;;2.77;;
19183;SDS011;9724;51.194;6.856;2022-12-20T02:52:48;6.13;;;2.80;;
19183;SDS011;9724;51.194;6.856;2022-12-20T02:55:15;2.90;;;2.70;;
19183;SDS011;9724;51.194;6.856;2022-12-20T02:57:44;3.30;;;3.00;;
19183;SDS011;9724;51.194;6.856;2022-12-20T03:00:14;4.07;;;3.50;;
19183;SDS011;9724;51.194;6.856;2022-12-20T03:02:42;3.70;;;3.10;;
19183;SDS011;9724;51.194;6.856;2022-12-20T03:05:28;3.60;;;3.30;;
19183;SDS011;9724;51.194;6.856;2022-12-20T03:07:55;4.07;;;3.10;;
19183;SDS011;9724;51.194;6.856;2022-12-20T03:10:22;4.10;;;3.23;;
19183;SDS011;9724;51.194;6.856;2022-12-20T03:12:48;4.27;;;3.17;;
19183;SDS011;9724;51.194;6.856;2022-12-20T03:15:14;5.70;;;3.10;;
19183;SDS011;9724;51.194;6.856;2022-12-20T03:17:41;5.73;;;3.30;;
19183;SDS011;9724;51.194;6.856;2022-12-20T03:20:07;4.37;;;3.20;;
19183;SDS011;9724;51.194;6.856;2022-12-20T03:22:36;3.63;;;3.20;;
19183;SDS011;9724;51.194;6.856;2022-12-20T03:25:03;6.37;;;3.30;;
19183;SDS011;9724;51.194;6.856;2022-12-20T03:27:29;7.20;;;3.70;;
19183;SDS011;9724;51.194;6.856;2022-12-20T03:29:56;6.87;;;3.70;;
19183;SDS011;9724;51.194;6.856;2022-12-20T03:32:22;6.57;;;3.60;;
19183;SDS011;9724;51.194;6.856;2022-12-20T03:34:48;6.17;;;4.03;;
19183;SDS011;9724;51.194;6.856;2022-12-20T03:37:15;4.43;;;3.60;;
19183;SDS011;9724;51.194;6.856;2022-12-20T03:39:42;6.93;;;4.00;;
19183;SDS011;9724;51.194;6.856;2022-12-20T03:42:08;6.10;;;3.83;;
19183;SDS011;9724;51.194;6.856;2022-12-20T03:44:34;4.90;;;3.03;;
19183;SDS011;9724;51.194;6.856;2022-12-20T03:47:01;7.57;;;3.90;;
19183;SDS011;9724;51.194;6.856;2022-12-20T03:49:27;4.97;;;3.70;;
19183;SDS011;9724;51.194;6.856;2022-12-20T03:51:54;7.60;;;3.80;;
19183;SDS011;9724;51.194;6.856;2022-12-20T03:54:20;5.60;;;4.07;;
19183;SDS011;9724;51.194;6.856;2022-12-20T03:56:47;4.77;;;4.13;;
19183;SDS011;9724;51.194;6.856;2022-12-20T03:59:13;6.17;;;3.93;;
19183;SDS011;9724;51.194;6.856;2022-12-20T04:01:39;6.60;;;4.50;;
19183;SDS011;9724;51.194;6.856;2022-12-20T04:04:06;9.27;;;4.40;;
19183;SDS011;9724;51.194;6.856;2022-12-20T04:06:32;6.40;;;4.63;;
19183;SDS011;9724;51.194;6.856;2022-12-20T04:08:59;6.60;;;4.43;;
19183;SDS011;9724;51.194;6.856;2022-12-20T04:11:25;9.63;;;4.40;;
19183;SDS011;9724;51.194;6.856;2022-12-20T04:13:52;8.27;;;4.30;;
19183;SDS011;9724;51.194;6.856;2022-12-20T04:16:20;9.10;;;4.60;;
19183;SDS011;9724;51.194;6.856;2022-12-20T04:18:47;10.00;;;4.40;;
19183;SDS011;9724;51.194;6.856;2022-12-20T04:21:14;7.60;;;4.47;;
19183;SDS011;9724;51.194;6.856;2022-12-20T04:23:41;6.33;;;4.17;;
19183;SDS011;9724;51.194;6.856;2022-12-20T04:26:08;15.90;;;4.47;;
19183;SDS011;9724;51.194;6.856;2022-12-20T04:28:35;7.27;;;4.53;;
19183;SDS011;9724;51.194;6.856;2022-12-20T04:31:02;7.97;;;4.80;;
19183;SDS011;9724;51.194;6.856;2022-12-20T04:33:28;10.97;;;5.10;;
19183;SDS011;9724;51.194;6.856;2022-12-20T04:35:55;11.13;;;5.10;;
19183;SDS011;9724;51.194;6.856;2022-12-20T04:38:21;9.10;;;5.27;;
19183;SDS011;9724;51.194;6.856;2022-12-20T04:40:48;12.07;;;5.80;;
19183;SDS011;9724;51.194;6.856;2022-12-20T04:43:15;6.40;;;4.77;;
19183;SDS011;9724;51.194;6.856;2022-12-20T04:45:41;8.30;;;5.33;;
19183;SDS011;9724;51.194;6.856;2022-12-20T04:48:09;11.50;;;5.67;;
19183;SDS011;9724;51.194;6.856;2022-12-20T04:50:55;8.93;;;4.93;;
19183;SDS011;9724;51.194;6.856;2022-12-20T04:53:22;10.50;;;5.80;;
19183;SDS011;9724;51.194;6.856;2022-12-20T04:56:07;15.83;;;5.60;;
19183;SDS011;9724;51.194;6.856;2022-12-20T04:58:33;8.03;;;5.13;;
19183;SDS011;9724;51.194;6.856;2022-12-20T05:00:59;11.73;;;5.60;;
19183;SDS011;9724;51.194;6.856;2022-12-20T05:03:26;17.23;;;5.80;;
19183;SDS011;9724;51.194;6.856;2022-12-20T05:05:53;16.17;;;5.13;;
19183;SDS011;9724;51.194;6.856;2022-12-20T05:08:19;8.40;;;4.43;;
19183;SDS011;9724;51.194;6.856;2022-12-20T05:10:46;13.70;;;5.10;;
19183;SDS011;9724;51.194;6.856;2022-12-20T05:13:12;9.90;;;5.10;;
19183;SDS011;9724;51.194;6.856;2022-12-20T05:15:39;8.57;;;4.83;;
19183;SDS011;9724;51.194;6.856;2022-12-20T05:18:06;9.47;;;4.90;;
19183;SDS011;9724;51.194;6.856;2022-12-20T05:20:33;16.33;;;5.40;;
19183;SDS011;9724;51.194;6.856;2022-12-20T05:22:59;14.30;;;5.10;;
19183;SDS011;9724;51.194;6.856;2022-12-20T05:25:45;13.73;;;4.50;;
19183;SDS011;9724;51.194;6.856;2022-12-20T05:28:29;7.83;;;4.47;;
19183;SDS011;9724;51.194;6.856;2022-12-20T05:30:56;6.60;;;4.70;;
19183;SDS011;9724;51.194;6.856;2022-12-20T05:33:23;9.47;;;4.63;;
19183;SDS011;9724;51.194;6.856;2022-12-20T05:35:59;8.93;;;4.00;;
19183;SDS011;9724;51.194;6.856;2022-12-20T05:38:28;9.80;;;4.23;;
19183;SDS011;9724;51.194;6.856;2022-12-20T05:40:55;6.03;;;4.20;;
19183;SDS011;9724;51.194;6.856;2022-12-20T05:43:21;7.77;;;3.73;;
19183;SDS011;9724;51.194;6.856;2022-12-20T05:45:48;9.57;;;4.20;;
19183;SDS011;9724;51.194;6.856;2022-12-20T05:48:15;6.80;;;4.03;;
19183;SDS011;9724;51.194;6.856;2022-12-20T05:50:42;10.43;;;4.07;;
19183;SDS011;9724;51.194;6.856;2022-12-20T05:53:10;4.90;;;4.40;;
19183;SDS011;9724;51.194;6.856;2022-12-20T05:55:37;10.20;;;4.07;;
19183;SDS011;9724;51.194;6.856;2022-12-20T05:58:05;9.40;;;4.63;;
19183;SDS011;9724;51.194;6.856;2022-12-20T06:00:31;9.13;;;3.83;;
19183;SDS011;9724;51.194;6.856;2022-12-20T06:02:58;6.53;;;3.80;;
19183;SDS011;9724;51.194;6.856;2022-12-20T06:05:24;8.40;;;3.83;;
19183;SDS011;9724;51.194;6.856;2022-12-20T06:07:51;8.77;;;3.30;;
19183;SDS011;9724;51.194;6.856;2022-12-20T06:10:17;7.17;;;4.30;;
19183;SDS011;9724;51.194;6.856;2022-12-20T06:12:44;6.80;;;3.90;;
19183;SDS011;9724;51.194;6.856;2022-12-20T06:15:10;9.50;;;4.17;;
19183;SDS011;9724;51.194;6.856;2022-12-20T06:17:37;11.70;;;3.83;;
19183;SDS011;9724;51.194;6.856;2022-12-20T06:20:04;9.63;;;4.53;;
19183;SDS011;9724;51.194;6.856;2022-12-20T06:22:31;9.67;;;4.43;;
19183;SDS011;9724;51.194;6.856;2022-12-20T06:24:58;9.70;;;4.50;;
19183;SDS011;9724;51.194;6.856;2022-12-20T06:27:24;7.50;;;4.20;;
19183;SDS011;9724;51.194;6.856;2022-12-20T06:29:51;6.57;;;3.73;;
19183;SDS011;9724;51.194;6.856;2022-12-20T06:32:18;10.80;;;4.43;;
19183;SDS011;9724;51.194;6.856;2022-12-20T06:34:45;7.30;;;4.10;;
19183;SDS011;9724;51.194;6.856;2022-12-20T06:37:11;6.00;;;4.10;;
19183;SDS011;9724;51.194;6.856;2022-12-20T06:39:38;5.47;;;4.00;;
19183;SDS011;9724;51.194;6.856;2022-12-20T06:42:04;5.83;;;4.10;;
19183;SDS011;9724;51.194;6.856;2022-12-20T06:44:32;6.90;;;4.07;;
19183;SDS011;9724;51.194;6.856;2022-12-20T06:46:58;5.97;;;4.30;;
19183;SDS011;9724;51.194;6.856;2022-12-20T06:49:24;6.23;;;3.87;;
19183;SDS011;9724;51.194;6.856;2022-12-20T06:51:51;5.77;;;3.90;;
19183;SDS011;9724;51.194;6.856;2022-12-20T06:54:17;6.53;;;4.00;;
19183;SDS011;9724;51.194;6.856;2022-12-20T06:56:43;6.93;;;3.50;;
19183;SDS011;9724;51.194;6.856;2022-12-20T06:59:09;7.60;;;3.50;;
19183;SDS011;9724;51.194;6.856;2022-12-20T07:01:36;5.70;;;3.60;;
19183;SDS011;9724;51.194;6.856;2022-12-20T07:04:03;6.90;;;3.60;;
19183;SDS011;9724;51.194;6.856;2022-12-20T07:06:29;8.47;;;3.60;;
19183;SDS011;9724;51.194;6.856;2022-12-20T07:08:57;6.73;;;3.70;;
19183;SDS011;9724;51.194;6.856;2022-12-20T07:11:24;5.03;;;3.03;;
19183;SDS011;9724;51.194;6.856;2022-12-20T07:13:53;5.93;;;3.60;;
19183;SDS011;9724;51.194;6.856;2022-12-20T07:16:19;4.30;;;3.10;;
19183;SDS011;9724;51.194;6.856;2022-12-20T07:18:48;7.00;;;3.50;;
19183;SDS011;9724;51.194;6.856;2022-12-20T07:21:15;4.30;;;3.40;;
19183;SDS011;9724;51.194;6.856;2022-12-20T07:23:42;7.70;;;3.80;;
19183;SDS011;9724;51.194;6.856;2022-12-20T07:26:08;6.43;;;3.70;;
19183;SDS011;9724;51.194;6.856;2022-12-20T07:28:35;9.80;;;3.97;;
19183;SDS011;9724;51.194;6.856;2022-12-20T07:31:02;7.40;;;3.93;;
19183;SDS011;9724;51.194;6.856;2022-12-20T07:33:30;3.90;;;3.50;;
19183;SDS011;9724;51.194;6.856;2022-12-20T07:36:01;6.13;;;3.60;;
19183;SDS011;9724;51.194;6.856;2022-12-20T07:38:29;6.17;;;3.10;;
19183;SDS011;9724;51.194;6.856;2022-12-20T07:40:55;6.20;;;3.50;;
19183;SDS011;9724;51.194;6.856;2022-12-20T07:43:22;4.90;;;3.30;;
19183;SDS011;9724;51.194;6.856;2022-12-20T07:45:52;6.57;;;3.47;;
19183;SDS011;9724;51.194;6.856;2022-12-20T07:48:19;3.97;;;3.30;;
19183;SDS011;9724;51.194;6.856;2022-12-20T07:50:47;3.70;;;3.27;;
19183;SDS011;9724;51.194;6.856;2022-12-20T07:53:14;5.10;;;3.50;;
19183;SDS011;9724;51.194;6.856;2022-12-20T07:55:40;7.37;;;3.77;;
19183;SDS011;9724;51.194;6.856;2022-12-20T07:58:07;13.00;;;3.83;;
19183;SDS011;9724;51.194;6.856;2022-12-20T08:00:34;8.90;;;4.13;;
19183;SDS011;9724;51.194;6.856;2022-12-20T08:03:03;5.83;;;3.30;;
19183;SDS011;9724;51.194;6.856;2022-12-20T08:05:31;6.10;;;3.67;;
19183;SDS011;9724;51.194;6.856;2022-12-20T08:07:58;4.80;;;2.80;;
19183;SDS011;9724;51.194;6.856;2022-12-20T08:10:25;5.43;;;3.13;;
19183;SDS011;9724;51.194;6.856;2022-12-20T08:12:52;8.07;;;3.70;;
19183;SDS011;9724;51.194;6.856;2022-12-20T08:15:18;6.30;;;3.80;;
19183;SDS011;9724;51.194;6.856;2022-12-20T08:17:47;5.83;;;3.07;;
19183;SDS011;9724;51.194;6.856;2022-12-20T08:20:13;4.53;;;3.00;;
19183;SDS011;9724;51.194;6.856;2022-12-20T08:22:40;7.60;;;3.30;;
19183;SDS011;9724;51.194;6.856;2022-12-20T08:25:06;5.93;;;3.20;;
19183;SDS011;9724;51.194;6.856;2022-12-20T08:27:34;4.93;;;3.27;;
19183;SDS011;9724;51.194;6.856;2022-12-20T08:30:00;4.10;;;3.30;;
19183;SDS011;9724;51.194;6.856;2022-12-20T08:32:26;4.87;;;3.53;;
19183;SDS011;9724;51.194;6.856;2022-12-20T08:34:53;6.30;;;3.30;;
19183;SDS011;9724;51.194;6.856;2022-12-20T08:37:20;4.03;;;3.40;;
19183;SDS011;9724;51.194;6.856;2022-12-20T08:39:46;3.63;;;3.30;;
19183;SDS011;9724;51.194;6.856;2022-12-20T08:42:12;9.03;;;3.93;;
19183;SDS011;9724;51.194;6.856;2022-12-20T08:44:39;12.80;;;3.60;;
19183;SDS011;9724;51.194;6.856;2022-12-20T08:47:06;4.33;;;3.07;;
19183;SDS011;9724;51.194;6.856;2022-12-20T08:49:32;3.93;;;3.10;;
19183;SDS011;9724;51.194;6.856;2022-12-20T08:51:58;5.70;;;3.13;;
19183;SDS011;9724;51.194;6.856;2022-12-20T08:54:24;6.40;;;3.47;;
19183;SDS011;9724;51.194;6.856;2022-12-20T08:56:50;9.90;;;4.00;;
19183;SDS011;9724;51.194;6.856;2022-12-20T08:59:17;7.13;;;3.53;;
19183;SDS011;9724;51.194;6.856;2022-12-20T09:01:44;7.37;;;4.13;;
19183;SDS011;9724;51.194;6.856;2022-12-20T09:04:10;3.60;;;3.30;;
19183;SDS011;9724;51.194;6.856;2022-12-20T09:06:37;6.80;;;3.83;;
19183;SDS011;9724;51.194;6.856;2022-12-20T09:09:04;5.37;;;3.23;;
19183;SDS011;9724;51.194;6.856;2022-12-20T09:11:31;6.30;;;4.20;;
19183;SDS011;9724;51.194;6.856;2022-12-20T09:13:58;8.23;;;3.70;;
19183;SDS011;9724;51.194;6.856;2022-12-20T09:16:25;6.63;;;3.40;;
19183;SDS011;9724;51.194;6.856;2022-12-20T09:18:53;3.50;;;3.20;;
19183;SDS011;9724;51.194;6.856;2022-12-20T09:21:30;6.13;;;3.23;;
19183;SDS011;9724;51.194;6.856;2022-12-20T09:23:56;4.53;;;3.23;;
19183;SDS011;9724;51.194;6.856;2022-12-20T09:26:23;8.23;;;3.93;;
19183;SDS011;9724;51.194;6.856;2022-12-20T09:28:50;5.20;;;3.03;;
19183;SDS011;9724;51.194;6.856;2022-12-20T09:31:18;9.70;;;3.40;;
19183;SDS011;9724;51.194;6.856;2022-12-20T09:33:45;6.47;;;3.13;;
19183;SDS011;9724;51.194;6.856;2022-12-20T09:36:22;10.27;;;3.60;;
19183;SDS011;9724;51.194;6.856;2022-12-20T09:38:49;9.30;;;3.10;;
19183;SDS011;9724;51.194;6.856;2022-12-20T09:41:18;4.07;;;3.07;;
19183;SDS011;9724;51.194;6.856;2022-12-20T09:43:50;8.40;;;4.13;;
19183;SDS011;9724;51.194;6.856;2022-12-20T09:46:16;6.63;;;3.53;;
19183;SDS011;9724;51.194;6.856;2022-12-20T09:48:43;5.80;;;3.50;;
19183;SDS011;9724;51.194;6.856;2022-12-20T09:51:12;8.53;;;3.47;;
19183;SDS011;9724;51.194;6.856;2022-12-20T09:53:46;5.90;;;3.13;;
19183;SDS011;9724;51.194;6.856;2022-12-20T09:56:22;6.30;;;3.10;;
19183;SDS011;9724;51.194;6.856;2022-12-20T09:58:55;8.13;;;3.63;;
19183;SDS011;9724;51.194;6.856;2022-12-20T10:01:24;5.73;;;3.63;;
19183;SDS011;9724;51.194;6.856;2022-12-20T10:03:58;5.77;;;3.80;;
19183;SDS011;9724;51.194;6.856;2022-12-20T10:06:29;11.13;;;3.73;;
19183;SDS011;9724;51.194;6.856;2022-12-20T10:09:09;7.03;;;3.90;;
19183;SDS011;9724;51.194;6.856;2022-12-20T10:11:44;5.73;;;3.80;;
19183;SDS011;9724;51.194;6.856;2022-12-20T10:14:23;6.87;;;3.40;;
19183;SDS011;9724;51.194;6.856;2022-12-20T10:16:57;5.70;;;3.67;;
19183;SDS011;9724;51.194;6.856;2022-12-20T10:19:34;6.43;;;3.60;;
19183;SDS011;9724;51.194;6.856;2022-12-20T10:22:11;6.17;;;2.90;;
19183;SDS011;9724;51.194;6.856;2022-12-20T10:24:40;5.37;;;3.47;;
19183;SDS011;9724;51.194;6.856;2022-12-20T10:27:10;7.63;;;3.70;;
19183;SDS011;9724;51.194;6.856;2022-12-20T10:29:37;7.60;;;3.43;;
19183;SDS011;9724;51.194;6.856;2022-12-20T10:32:04;5.23;;;3.67;;
19183;SDS011;9724;51.194;6.856;2022-12-20T10:34:37;8.23;;;3.83;;
19183;SDS011;9724;51.194;6.856;2022-12-20T10:37:11;5.93;;;3.60;;
19183;SDS011;9724;51.194;6.856;2022-12-20T10:39:42;7.67;;;3.27;;
19183;SDS011;9724;51.194;6.856;2022-12-20T10:42:22;7.03;;;3.27;;
19183;SDS011;9724;51.194;6.856;2022-12-20T10:44:50;10.33;;;4.63;;
19183;SDS011;9724;51.194;6.856;2022-12-20T10:47:21;6.10;;;3.07;;
19183;SDS011;9724;51.194;6.856;2022-12-20T10:49:50;5.77;;;3.10;;
19183;SDS011;9724;51.194;6.856;2022-12-20T10:52:16;5.17;;;2.77;;
19183;SDS011;9724;51.194;6.856;2022-12-20T10:54:44;8.27;;;3.07;;
19183;SDS011;9724;51.194;6.856;2022-12-20T10:57:15;9.00;;;3.47;;
19183;SDS011;9724;51.194;6.856;2022-12-20T10:59:44;6.97;;;3.10;;
19183;SDS011;9724;51.194;6.856;2022-12-20T11:02:27;7.43;;;3.30;;
19183;SDS011;9724;51.194;6.856;2022-12-20T11:05:16;5.23;;;3.27;;
19183;SDS011;9724;51.194;6.856;2022-12-20T11:07:51;6.03;;;3.03;;
19183;SDS011;9724;51.194;6.856;2022-12-20T11:10:39;10.07;;;3.40;;
19183;SDS011;9724;51.194;6.856;2022-12-20T11:13:05;8.03;;;3.27;;
19183;SDS011;9724;51.194;6.856;2022-12-20T11:15:32;9.03;;;3.67;;
19183;SDS011;9724;51.194;6.856;2022-12-20T11:18:02;5.87;;;2.77;;
19183;SDS011;9724;51.194;6.856;2022-12-20T11:20:34;10.07;;;3.10;;
19183;SDS011;9724;51.194;6.856;2022-12-20T11:23:07;6.17;;;3.07;;
19183;SDS011;9724;51.194;6.856;2022-12-20T11:25:44;6.10;;;3.00;;
19183;SDS011;9724;51.194;6.856;2022-12-20T11:28:21;5.73;;;2.90;;
19183;SDS011;9724;51.194;6.856;2022-12-20T11:30:58;4.47;;;2.73;;
19183;SDS011;9724;51.194;6.856;2022-12-20T11:33:37;4.03;;;2.97;;
19183;SDS011;9724;51.194;6.856;2022-12-20T11:36:09;3.17;;;2.60;;
19183;SDS011;9724;51.194;6.856;2022-12-20T11:38:39;7.77;;;2.90;;
19183;SDS011;9724;51.194;6.856;2022-12-20T11:41:19;9.90;;;2.93;;
19183;SDS011;9724;51.194;6.856;2022-12-20T11:43:58;8.43;;;2.97;;
19183;SDS011;9724;51.194;6.856;2022-12-20T11:46:54;7.20;;;3.00;;
19183;SDS011;9724;51.194;6.856;2022-12-20T11:52:15;8.00;;;2.83;;
19183;SDS011;9724;51.194;6.856;2022-12-20T11:54:46;5.80;;;3.37;;
19183;SDS011;9724;51.194;6.856;2022-12-20T11:57:25;3.97;;;3.00;;
19183;SDS011;9724;51.194;6.856;2022-12-20T11:59:53;7.97;;;2.60;;
19183;SDS011;9724;51.194;6.856;2022-12-20T12:02:24;7.90;;;3.23;;
19183;SDS011;9724;51.194;6.856;2022-12-20T12:04:55;7.50;;;3.20;;
19183;SDS011;9724;51.194;6.856;2022-12-20T12:07:26;7.03;;;3.07;;
19183;SDS011;9724;51.194;6.856;2022-12-20T12:09:55;3.90;;;2.77;;
19183;SDS011;9724;51.194;6.856;2022-12-20T12:12:25;4.03;;;2.60;;
19183;SDS011;9724;51.194;6.856;2022-12-20T12:14:54;2.97;;;2.70;;
19183;SDS011;9724;51.194;6.856;2022-12-20T12:17:26;4.03;;;2.40;;
19183;SDS011;9724;51.194;6.856;2022-12-20T12:20:03;6.17;;;2.83;;
19183;SDS011;9724;51.194;6.856;2022-12-20T12:22:39;5.10;;;3.10;;
19183;SDS011;9724;51.194;6.856;2022-12-20T12:25:08;6.23;;;2.87;;
19183;SDS011;9724;51.194;6.856;2022-12-20T12:27:38;3.47;;;2.80;;
19183;SDS011;9724;51.194;6.856;2022-12-20T12:30:05;6.23;;;2.90;;
19183;SDS011;9724;51.194;6.856;2022-12-20T12:32:37;2.77;;;2.57;;
19183;SDS011;9724;51.194;6.856;2022-12-20T12:35:13;5.53;;;3.37;;
19183;SDS011;9724;51.194;6.856;2022-12-20T12:37:53;4.60;;;2.80;;
19183;SDS011;9724;51.194;6.856;2022-12-20T12:40:29;5.73;;;3.00;;
19183;SDS011;9724;51.194;6.856;2022-12-20T12:46:11;8.40;;;3.30;;
19183;SDS011;9724;51.194;6.856;2022-12-20T12:48:40;4.10;;;3.40;;
19183;SDS011;9724;51.194;6.856;2022-12-20T12:51:08;3.83;;;2.90;;
19183;SDS011;9724;51.194;6.856;2022-12-20T12:53:36;4.67;;;3.40;;
19183;SDS011;9724;51.194;6.856;2022-12-20T12:59:23;13.67;;;3.87;;
19183;SDS011;9724;51.194;6.856;2022-12-20T13:02:32;10.10;;;3.53;;
19183;SDS011;9724;51.194;6.856;2022-12-20T13:05:00;11.90;;;3.50;;
19183;SDS011;9724;51.194;6.856;2022-12-20T13:08:08;7.27;;;3.40;;
19183;SDS011;9724;51.194;6.856;2022-12-20T13:10:58;9.67;;;3.83;;
19183;SDS011;9724;51.194;6.856;2022-12-20T13:13:26;12.03;;;4.27;;
19183;SDS011;9724;51.194;6.856;2022-12-20T13:19:13;6.87;;;3.90;;
19183;SDS011;9724;51.194;6.856;2022-12-20T13:21:41;15.30;;;4.40;;
19183;SDS011;9724;51.194;6.856;2022-12-20T13:27:25;12.17;;;3.97;;
19183;SDS011;9724;51.194;6.856;2022-12-20T13:29:57;9.67;;;3.87;;
19183;SDS011;9724;51.194;6.856;2022-12-20T13:38:54;15.13;;;4.00;;
19183;SDS011;9724;51.194;6.856;2022-12-20T13:41:24;10.53;;;4.47;;
19183;SDS011;9724;51.194;6.856;2022-12-20T13:44:07;17.37;;;5.37;;
19183;SDS011;9724;51.194;6.856;2022-12-20T13:46:56;10.33;;;4.50;;
19183;SDS011;9724;51.194;6.856;2022-12-20T13:49:25;13.90;;;4.93;;
19183;SDS011;9724;51.194;6.856;2022-12-20T13:52:06;18.17;;;5.60;;
19183;SDS011;9724;51.194;6.856;2022-12-20T13:54:44;15.87;;;5.17;;
19183;SDS011;9724;51.194;6.856;2022-12-20T13:57:13;21.13;;;5.73;;
19183;SDS011;9724;51.194;6.856;2022-12-20T13:59:43;15.17;;;5.77;;
19183;SDS011;9724;51.194;6.856;2022-12-20T14:02:15;15.03;;;5.73;;
19183;SDS011;9724;51.194;6.856;2022-12-20T14:04:45;18.50;;;5.80;;
19183;SDS011;9724;51.194;6.856;2022-12-20T14:07:15;17.70;;;5.43;;
19183;SDS011;9724;51.194;6.856;2022-12-20T14:09:43;20.20;;;8.67;;
19183;SDS011;9724;51.194;6.856;2022-12-20T14:12:12;23.30;;;10.07;;
19183;SDS011;9724;51.194;6.856;2022-12-20T14:14:49;19.60;;;6.10;;
19183;SDS011;9724;51.194;6.856;2022-12-20T14:17:16;17.10;;;5.37;;
19183;SDS011;9724;51.194;6.856;2022-12-20T14:19:45;20.10;;;8.53;;
19183;SDS011;9724;51.194;6.856;2022-12-20T14:22:11;10.73;;;4.90;;
19183;SDS011;9724;51.194;6.856;2022-12-20T14:24:38;14.70;;;6.53;;
19183;SDS011;9724;51.194;6.856;2022-12-20T14:27:07;17.70;;;6.23;;
19183;SDS011;9724;51.194;6.856;2022-12-20T14:29:34;18.23;;;5.83;;
19183;SDS011;9724;51.194;6.856;2022-12-20T14:32:00;13.33;;;4.97;;
19183;SDS011;9724;51.194;6.856;2022-12-20T14:34:27;13.67;;;4.80;;
19183;SDS011;9724;51.194;6.856;2022-12-20T14:39:53;12.73;;;4.90;;
19183;SDS011;9724;51.194;6.856;2022-12-20T14:42:20;16.43;;;5.60;;
19183;SDS011;9724;51.194;6.856;2022-12-20T14:44:47;13.10;;;5.17;;
19183;SDS011;9724;51.194;6.856;2022-12-20T14:47:14;16.13;;;4.80;;
19183;SDS011;9724;51.194;6.856;2022-12-20T14:49:45;10.33;;;4.97;;
19183;SDS011;9724;51.194;6.856;2022-12-20T14:52:14;18.00;;;7.50;;
19183;SDS011;9724;51.194;6.856;2022-12-20T14:54:42;19.40;;;8.17;;
19183;SDS011;9724;51.194;6.856;2022-12-20T14:57:31;23.13;;;10.77;;
19183;SDS011;9724;51.194;6.856;2022-12-20T15:00:12;16.80;;;6.83;;
19183;SDS011;9724;51.194;6.856;2022-12-20T15:02:40;18.73;;;7.13;;
19183;SDS011;9724;51.194;6.856;2022-12-20T15:05:09;15.20;;;5.87;;
19183;SDS011;9724;51.194;6.856;2022-12-20T15:08:12;15.63;;;5.87;;
19183;SDS011;9724;51.194;6.856;2022-12-20T15:10:40;14.27;;;5.47;;
19183;SDS011;9724;51.194;6.856;2022-12-20T15:13:10;16.97;;;5.87;;
19183;SDS011;9724;51.194;6.856;2022-12-20T15:15:38;10.30;;;5.23;;
19183;SDS011;9724;51.194;6.856;2022-12-20T15:18:07;15.13;;;5.30;;
19183;SDS011;9724;51.194;6.856;2022-12-20T15:20:36;12.70;;;5.07;;
19183;SDS011;9724;51.194;6.856;2022-12-20T15:23:02;11.00;;;4.90;;
19183;SDS011;9724;51.194;6.856;2022-12-20T15:25:29;13.37;;;5.27;;
19183;SDS011;9724;51.194;6.856;2022-12-20T15:28:18;10.47;;;4.83;;
19183;SDS011;9724;51.194;6.856;2022-12-20T15:30:46;14.77;;;5.20;;
19183;SDS011;9724;51.194;6.856;2022-12-20T15:33:16;12.80;;;5.63;;
19183;SDS011;9724;51.194;6.856;2022-12-20T15:35:44;11.40;;;4.90;;
19183;SDS011;9724;51.194;6.856;2022-12-20T15:38:12;9.43;;;5.50;;
19183;SDS011;9724;51.194;6.856;2022-12-20T15:40:40;10.27;;;4.70;;